createdAt,value
2022-12-06T00:01:12.196Z,16.63
2022-12-06T00:03:39.921Z,17.40
2022-12-06T00:06:09.584Z,15.27
2022-12-06T00:08:37.516Z,15.73
2022-12-06T00:11:18.692Z,15.45
2022-12-06T00:13:46.291Z,15.05
2022-12-06T00:16:15.190Z,15.77
2022-12-06T00:18:43.290Z,17.13
2022-12-06T00:21:11.181Z,15.25
2022-12-06T00:23:38.917Z,16.48
2022-12-06T00:26:07.151Z,17.42
2022-12-06T00:28:34.930Z,16.90
2022-12-06T00:31:03.561Z,20.63
2022-12-06T00:33:30.611Z,17.17
2022-12-06T00:35:59.136Z,16.10
2022-12-06T00:38:26.886Z,16.17
2022-12-06T00:41:01.115Z,14.80
2022-12-06T00:43:28.058Z,14.98
2022-12-06T00:45:55.633Z,16.25
2022-12-06T00:48:23.108Z,14.55
2022-12-06T00:50:49.754Z,14.38
2022-12-06T00:53:16.914Z,15.43
2022-12-06T00:55:44.653Z,15.13
2022-12-06T00:58:12.210Z,14.73
2022-12-06T01:00:39.254Z,13.40
2022-12-06T01:03:06.658Z,14.85
2022-12-06T01:05:33.950Z,15.13
2022-12-06T01:08:00.678Z,14.98
2022-12-06T01:10:27.396Z,14.10
2022-12-06T01:12:54.024Z,15.80
2022-12-06T01:15:20.722Z,14.82
2022-12-06T01:17:47.468Z,14.60
2022-12-06T01:20:14.315Z,15.05
2022-12-06T01:22:40.903Z,16.60
2022-12-06T01:25:07.922Z,15.50
2022-12-06T01:27:34.658Z,15.73
2022-12-06T01:30:01.589Z,15.20
2022-12-06T01:32:30.132Z,14.45
2022-12-06T01:34:57.136Z,14.77
2022-12-06T01:37:23.812Z,14.55
2022-12-06T01:39:50.519Z,14.77
2022-12-06T01:42:17.446Z,15.35
2022-12-06T01:44:53.223Z,14.15
2022-12-06T01:47:22.571Z,15.13
2022-12-06T01:50:07.352Z,14.57
2022-12-06T01:52:51.548Z,15.20
2022-12-06T01:55:21.840Z,15.35
2022-12-06T01:57:51.777Z,17.50
2022-12-06T02:00:18.919Z,15.90
2022-12-06T02:02:46.117Z,16.55
2022-12-06T02:05:14.564Z,16.75
2022-12-06T02:07:43.092Z,16.30
2022-12-06T02:10:10.170Z,15.80
2022-12-06T02:12:36.871Z,16.75
2022-12-06T02:15:03.828Z,15.73
2022-12-06T02:17:50.517Z,16.48
2022-12-06T02:20:33.264Z,15.52
2022-12-06T02:23:39.225Z,16.73
2022-12-06T02:26:17.727Z,15.50
2022-12-06T02:28:53.454Z,16.95
2022-12-06T02:31:28.897Z,16.35
2022-12-06T02:34:18.165Z,15.65
2022-12-06T02:36:51.278Z,17.63
2022-12-06T02:39:26.814Z,17.35
2022-12-06T02:42:06.847Z,17.77
2022-12-06T02:44:48.406Z,17.35
2022-12-06T02:47:18.840Z,17.03
2022-12-06T02:49:50.213Z,17.85
2022-12-06T02:52:20.433Z,17.07
2022-12-06T02:54:48.620Z,16.00
2022-12-06T02:57:15.252Z,16.38
2022-12-06T02:59:53.027Z,17.38
2022-12-06T03:02:21.676Z,17.20
2022-12-06T03:05:08.380Z,17.35
2022-12-06T03:07:43.417Z,17.00
2022-12-06T03:10:36.153Z,19.25
2022-12-06T03:15:45.678Z,16.73
2022-12-06T03:18:21.770Z,16.80
2022-12-06T03:21:11.405Z,17.10
2022-12-06T03:23:42.417Z,16.65
2022-12-06T03:26:13.720Z,18.67
2022-12-06T03:28:43.461Z,19.00
2022-12-06T03:31:13.276Z,17.50
2022-12-06T03:33:50.979Z,19.70
2022-12-06T03:36:18.995Z,19.85
2022-12-06T03:39:00.245Z,20.80
2022-12-06T03:41:31.226Z,22.23
2022-12-06T03:43:59.289Z,22.67
2022-12-06T03:46:37.579Z,22.25
2022-12-06T03:49:14.461Z,21.35
2022-12-06T03:51:43.405Z,21.33
2022-12-06T03:54:10.577Z,22.38
2022-12-06T03:56:38.605Z,20.02
2022-12-06T03:59:10.670Z,20.33
2022-12-06T04:01:38.328Z,19.85
2022-12-06T04:04:05.728Z,20.52
2022-12-06T04:06:33.057Z,20.00
2022-12-06T04:09:18.476Z,20.15
2022-12-06T04:11:45.444Z,18.63
2022-12-06T04:14:12.165Z,20.38
2022-12-06T04:16:57.708Z,19.42
2022-12-06T04:19:25.565Z,19.33
2022-12-06T04:22:10.882Z,19.98
2022-12-06T04:24:37.577Z,19.60
2022-12-06T04:27:22.863Z,19.13
2022-12-06T04:30:08.026Z,18.60
2022-12-06T04:32:55.190Z,19.23
2022-12-06T04:35:40.640Z,17.92
2022-12-06T04:38:26.209Z,18.52
2022-12-06T04:40:52.815Z,19.85
2022-12-06T04:43:38.118Z,18.95
2022-12-06T04:46:04.790Z,18.70
2022-12-06T04:48:31.574Z,18.65
2022-12-06T04:50:58.238Z,20.35
2022-12-06T04:53:24.889Z,19.60
2022-12-06T04:55:52.860Z,20.17
2022-12-06T04:58:20.045Z,21.45
2022-12-06T05:00:50.253Z,20.58
2022-12-06T05:03:17.335Z,19.95
2022-12-06T05:05:44.059Z,19.50
2022-12-06T05:08:10.890Z,17.73
2022-12-06T05:10:38.364Z,15.88
2022-12-06T05:13:05.648Z,16.90
2022-12-06T05:15:33.230Z,18.90
2022-12-06T05:18:00.024Z,16.50
2022-12-06T05:20:27.508Z,15.20
2022-12-06T05:22:54.200Z,17.17
2022-12-06T05:25:20.944Z,15.93
2022-12-06T05:27:48.012Z,15.23
2022-12-06T05:30:15.076Z,16.02
2022-12-06T05:32:41.664Z,15.55
2022-12-06T05:35:08.822Z,16.20
2022-12-06T05:37:35.622Z,17.13
2022-12-06T05:40:02.911Z,15.20
2022-12-06T05:42:30.026Z,15.45
2022-12-06T05:44:57.004Z,16.83
2022-12-06T05:47:23.627Z,19.52
2022-12-06T05:49:51.254Z,16.55
2022-12-06T05:52:17.987Z,16.38
2022-12-06T05:54:44.569Z,19.98
2022-12-06T05:57:11.231Z,20.52
2022-12-06T05:59:37.885Z,19.60
2022-12-06T06:02:04.704Z,17.40
2022-12-06T06:04:31.608Z,18.63
2022-12-06T06:06:58.230Z,16.17
2022-12-06T06:09:27.504Z,19.75
2022-12-06T06:11:55.204Z,15.95
2022-12-06T06:14:21.980Z,15.57
2022-12-06T06:16:48.887Z,14.05
2022-12-06T06:19:15.603Z,15.00
2022-12-06T06:21:42.387Z,17.60
2022-12-06T06:24:09.275Z,17.80
2022-12-06T06:26:36.223Z,18.67
2022-12-06T06:29:02.867Z,16.65
2022-12-06T06:31:29.732Z,18.52
2022-12-06T06:33:56.421Z,18.30
2022-12-06T06:36:23.184Z,18.35
2022-12-06T06:38:49.819Z,19.92
2022-12-06T06:41:16.527Z,25.63
2022-12-06T06:43:43.361Z,30.52
2022-12-06T06:46:10.292Z,27.33
2022-12-06T06:48:39.046Z,22.08
2022-12-06T06:51:11.845Z,19.63
2022-12-06T06:53:39.996Z,21.80
2022-12-06T06:56:07.340Z,20.75
2022-12-06T06:58:34.070Z,19.77
2022-12-06T07:01:02.338Z,18.27
2022-12-06T07:03:29.655Z,15.57
2022-12-06T07:06:02.478Z,15.60
2022-12-06T07:08:31.432Z,15.05
2022-12-06T07:10:58.977Z,21.60
2022-12-06T07:13:27.522Z,20.63
2022-12-06T07:15:54.315Z,17.80
2022-12-06T07:18:21.451Z,16.60
2022-12-06T07:20:48.957Z,19.15
2022-12-06T07:23:16.569Z,15.82
2022-12-06T07:25:43.344Z,14.85
2022-12-06T07:28:10.112Z,14.63
2022-12-06T07:30:36.818Z,13.75
2022-12-06T07:33:03.614Z,13.35
2022-12-06T07:38:18.984Z,11.98
2022-12-06T07:41:04.176Z,12.23
2022-12-06T07:43:50.141Z,14.40
2022-12-06T07:46:16.787Z,16.67
2022-12-06T07:48:43.332Z,12.90
2022-12-06T07:51:09.968Z,13.32
2022-12-06T07:53:36.621Z,13.30
2022-12-06T07:56:08.541Z,12.18
2022-12-06T07:58:35.286Z,14.77
2022-12-06T08:01:04.598Z,13.68
2022-12-06T08:03:31.489Z,13.45
2022-12-06T08:05:58.174Z,12.38
2022-12-06T08:08:28.567Z,13.80
2022-12-06T08:10:59.183Z,15.50
2022-12-06T08:13:25.766Z,12.65
2022-12-06T08:15:52.675Z,18.17
2022-12-06T08:18:19.308Z,11.30
2022-12-06T08:20:46.237Z,12.57
2022-12-06T08:23:12.932Z,12.50
2022-12-06T08:25:39.671Z,15.90
2022-12-06T08:28:06.494Z,13.07
2022-12-06T08:30:33.831Z,12.93
2022-12-06T08:33:00.560Z,10.52
2022-12-06T08:35:27.191Z,11.07
2022-12-06T08:37:54.117Z,10.88
2022-12-06T08:40:21.211Z,11.07
2022-12-06T08:42:47.823Z,11.38
2022-12-06T08:45:14.638Z,8.93
2022-12-06T08:47:41.293Z,10.38
2022-12-06T08:50:08.334Z,9.50
2022-12-06T08:52:35.000Z,10.45
2022-12-06T08:55:01.650Z,9.63
2022-12-06T08:57:28.248Z,8.10
2022-12-06T08:59:55.601Z,7.63
2022-12-06T09:02:22.356Z,9.30
2022-12-06T09:04:51.998Z,7.97
2022-12-06T09:07:19.413Z,7.45
2022-12-06T09:09:49.138Z,9.88
2022-12-06T09:12:16.109Z,9.05
2022-12-06T09:14:42.861Z,8.85
2022-12-06T09:17:09.673Z,7.82
2022-12-06T09:19:36.709Z,9.50
2022-12-06T09:22:03.481Z,8.70
2022-12-06T09:24:30.099Z,9.43
2022-12-06T09:26:56.668Z,9.23
2022-12-06T09:29:23.313Z,8.07
2022-12-06T09:31:50.291Z,8.00
2022-12-06T09:34:17.405Z,9.88
2022-12-06T09:36:51.402Z,9.65
2022-12-06T09:39:23.449Z,8.10
2022-12-06T09:42:08.558Z,8.27
2022-12-06T09:44:44.188Z,8.27
2022-12-06T09:47:13.928Z,9.63
2022-12-06T09:50:11.224Z,8.70
2022-12-06T09:52:58.971Z,9.70
2022-12-06T09:55:25.607Z,9.65
2022-12-06T09:58:10.583Z,10.57
2022-12-06T10:01:04.459Z,17.63
2022-12-06T10:04:03.939Z,11.55
2022-12-06T10:06:40.002Z,10.30
2022-12-06T10:09:09.675Z,10.45
2022-12-06T10:11:58.181Z,10.38
2022-12-06T10:14:53.787Z,10.60
2022-12-06T10:18:02.814Z,8.85
2022-12-06T10:20:41.720Z,8.57
2022-12-06T10:24:01.693Z,8.88
2022-12-06T10:26:44.999Z,8.85
2022-12-06T10:29:29.421Z,9.90
2022-12-06T10:32:04.985Z,8.07
2022-12-06T10:34:58.060Z,9.10
2022-12-06T10:37:55.727Z,8.82
2022-12-06T10:40:34.829Z,8.90
2022-12-06T10:43:11.930Z,8.23
2022-12-06T10:46:08.883Z,8.70
2022-12-06T10:48:57.200Z,8.88
2022-12-06T10:51:31.476Z,8.52
2022-12-06T10:54:04.810Z,7.93
2022-12-06T10:56:39.146Z,8.18
2022-12-06T10:59:21.776Z,10.50
2022-12-06T11:01:51.022Z,9.23
2022-12-06T11:04:26.374Z,8.88
2022-12-06T11:06:57.343Z,8.35
2022-12-06T11:09:44.460Z,8.98
2022-12-06T11:12:36.526Z,6.75
2022-12-06T11:15:25.878Z,10.20
2022-12-06T11:18:02.492Z,9.23
2022-12-06T11:20:38.838Z,7.55
2022-12-06T11:23:14.673Z,9.07
2022-12-06T11:25:50.461Z,9.75
2022-12-06T11:28:39.004Z,9.05
2022-12-06T11:31:16.598Z,8.27
2022-12-06T11:33:43.687Z,8.55
2022-12-06T11:36:10.533Z,9.55
2022-12-06T11:38:41.395Z,8.48
2022-12-06T11:41:11.152Z,9.95
2022-12-06T11:43:39.170Z,9.20
2022-12-06T11:46:08.233Z,9.20
2022-12-06T11:48:36.377Z,9.45
2022-12-06T11:51:03.279Z,9.32
2022-12-06T11:53:42.021Z,8.60
2022-12-06T11:56:30.374Z,8.10
2022-12-06T11:59:07.181Z,7.78
2022-12-06T12:01:42.616Z,9.30
2022-12-06T12:04:28.290Z,9.35
2022-12-06T12:07:17.924Z,9.10
2022-12-06T12:09:56.795Z,9.82
2022-12-06T12:12:54.813Z,9.13
2022-12-06T12:15:22.850Z,9.57
2022-12-06T12:17:53.199Z,8.68
2022-12-06T12:20:26.662Z,9.63
2022-12-06T12:23:18.320Z,8.90
2022-12-06T12:26:00.285Z,8.23
2022-12-06T12:28:30.483Z,9.23
2022-12-06T12:31:00.233Z,10.18
2022-12-06T12:33:28.365Z,10.18
2022-12-06T12:36:17.035Z,9.52
2022-12-06T12:38:56.750Z,7.35
2022-12-06T12:41:26.334Z,9.38
2022-12-06T12:44:28.828Z,8.98
2022-12-06T12:47:18.051Z,9.95
2022-12-06T12:50:03.175Z,9.00
2022-12-06T12:52:36.438Z,10.63
2022-12-06T12:55:20.889Z,9.32
2022-12-06T12:57:50.642Z,9.02
2022-12-06T13:00:38.405Z,10.85
2022-12-06T13:03:35.058Z,8.90
2022-12-06T13:06:01.610Z,9.05
2022-12-06T13:08:38.704Z,9.93
2022-12-06T13:11:05.596Z,8.68
2022-12-06T13:13:49.485Z,8.73
2022-12-06T13:16:24.205Z,9.65
2022-12-06T13:18:55.377Z,10.35
2022-12-06T13:21:32.149Z,8.75
2022-12-06T13:24:20.600Z,10.35
2022-12-06T13:26:58.429Z,10.40
2022-12-06T13:29:30.129Z,8.95
2022-12-06T13:31:59.411Z,9.65
2022-12-06T13:34:37.857Z,11.57
2022-12-06T13:37:35.797Z,11.65
2022-12-06T13:40:05.029Z,10.32
2022-12-06T13:42:37.909Z,9.40
2022-12-06T13:45:36.068Z,9.93
2022-12-06T13:48:02.818Z,10.65
2022-12-06T13:50:32.814Z,11.23
2022-12-06T13:53:03.241Z,11.02
2022-12-06T13:55:29.756Z,9.85
2022-12-06T13:57:56.427Z,9.85
2022-12-06T14:00:32.657Z,11.30
2022-12-06T14:03:02.725Z,10.50
2022-12-06T14:06:07.448Z,8.50
2022-12-06T14:08:59.564Z,9.35
2022-12-06T14:11:29.403Z,10.30
2022-12-06T14:13:56.011Z,13.57
2022-12-06T14:16:40.321Z,15.88
2022-12-06T14:19:21.125Z,12.85
2022-12-06T14:22:28.236Z,12.98
2022-12-06T14:24:58.766Z,13.73
2022-12-06T14:27:27.413Z,12.25
2022-12-06T14:30:06.451Z,13.80
2022-12-06T14:32:38.317Z,11.77
2022-12-06T14:35:11.500Z,13.05
2022-12-06T14:37:38.500Z,14.15
2022-12-06T14:40:45.107Z,13.30
2022-12-06T14:43:17.024Z,14.75
2022-12-06T14:45:44.864Z,11.73
2022-12-06T14:48:13.069Z,16.25
2022-12-06T14:51:05.946Z,15.20
2022-12-06T14:53:33.595Z,14.57
2022-12-06T14:56:06.358Z,15.15
2022-12-06T14:58:36.051Z,18.02
2022-12-06T15:01:15.036Z,17.90
2022-12-06T15:03:41.887Z,19.15
2022-12-06T15:06:30.203Z,13.70
2022-12-06T15:08:56.830Z,14.80
2022-12-06T15:11:48.691Z,12.10
2022-12-06T15:14:17.952Z,12.17
2022-12-06T15:16:56.084Z,13.18
2022-12-06T15:19:23.008Z,13.00
2022-12-06T15:21:53.426Z,14.85
2022-12-06T15:24:23.314Z,16.60
2022-12-06T15:26:50.979Z,15.10
2022-12-06T15:29:18.562Z,17.02
2022-12-06T15:31:49.752Z,18.33
2022-12-06T15:34:25.917Z,16.13
2022-12-06T15:37:15.288Z,18.42
2022-12-06T15:39:40.145Z,19.10
2022-12-06T15:42:23.837Z,18.40
2022-12-06T15:44:51.534Z,18.90
2022-12-06T15:47:19.883Z,19.05
2022-12-06T15:49:47.619Z,19.92
2022-12-06T15:52:23.022Z,18.23
2022-12-06T15:54:50.108Z,18.63
2022-12-06T15:57:16.925Z,20.08
2022-12-06T15:59:43.527Z,15.55
2022-12-06T16:02:18.363Z,16.55
2022-12-06T16:04:48.509Z,18.30
2022-12-06T16:07:19.311Z,20.48
2022-12-06T16:09:46.829Z,18.52
2022-12-06T16:12:13.507Z,18.58
2022-12-06T16:14:40.127Z,20.50
2022-12-06T16:17:06.908Z,20.33
2022-12-06T16:19:52.183Z,17.27
2022-12-06T16:22:18.808Z,18.02
2022-12-06T16:24:50.854Z,19.10
2022-12-06T16:27:20.722Z,21.10
2022-12-06T16:29:47.424Z,27.75
2022-12-06T16:32:14.063Z,23.30
2022-12-06T16:34:40.627Z,18.88
2022-12-06T16:37:07.329Z,20.00
2022-12-06T16:39:35.004Z,18.60
2022-12-06T16:42:03.371Z,20.33
2022-12-06T16:44:30.030Z,20.00
2022-12-06T16:46:56.968Z,21.67
2022-12-06T16:52:13.790Z,25.45
2022-12-06T16:54:41.788Z,23.20
2022-12-06T16:57:11.369Z,21.50
2022-12-06T16:59:38.158Z,18.98
2022-12-06T17:02:16.196Z,18.60
2022-12-06T17:04:43.125Z,19.50
2022-12-06T17:07:09.854Z,20.05
2022-12-06T17:09:36.539Z,21.58
2022-12-06T17:12:03.105Z,19.50
2022-12-06T17:14:30.435Z,22.45
2022-12-06T17:16:59.383Z,21.05
2022-12-06T17:19:28.388Z,18.88
2022-12-06T17:21:55.840Z,20.08
2022-12-06T17:24:25.237Z,23.00
2022-12-06T17:26:54.195Z,21.17
2022-12-06T17:29:21.072Z,22.02
2022-12-06T17:31:47.815Z,20.50
2022-12-06T17:34:15.864Z,23.15
2022-12-06T17:36:43.393Z,19.70
2022-12-06T17:39:13.469Z,19.17
2022-12-06T17:41:58.589Z,20.48
2022-12-06T17:44:25.138Z,20.52
2022-12-06T17:46:52.073Z,17.65
2022-12-06T17:49:24.155Z,17.60
2022-12-06T17:51:51.258Z,17.65
2022-12-06T17:54:22.188Z,19.67
2022-12-06T17:56:50.754Z,18.10
2022-12-06T17:59:27.098Z,19.85
2022-12-06T18:02:14.687Z,19.00
2022-12-06T18:04:44.264Z,21.55
2022-12-06T18:07:12.810Z,18.67
2022-12-06T18:09:39.601Z,17.77
2022-12-06T18:12:09.283Z,18.20
2022-12-06T18:14:36.394Z,20.40
2022-12-06T18:17:03.455Z,20.58
2022-12-06T18:19:31.126Z,19.48
2022-12-06T18:21:57.844Z,23.08
2022-12-06T18:24:29.277Z,19.10
2022-12-06T18:27:00.073Z,20.45
2022-12-06T18:29:26.717Z,23.25
2022-12-06T18:31:53.538Z,22.60
2022-12-06T18:34:20.487Z,24.67
2022-12-06T18:36:47.463Z,22.50
2022-12-06T18:39:17.060Z,21.65
2022-12-06T18:41:44.912Z,22.75
2022-12-06T18:44:12.666Z,23.40
2022-12-06T18:46:41.561Z,19.20
2022-12-06T18:49:10.503Z,20.63
2022-12-06T18:51:38.788Z,23.75
2022-12-06T18:54:06.880Z,21.23
2022-12-06T18:56:35.108Z,22.50
2022-12-06T18:59:05.687Z,24.23
2022-12-06T19:01:34.751Z,26.02
2022-12-06T19:04:05.376Z,28.27
2022-12-06T19:06:34.944Z,25.83
2022-12-06T19:09:10.586Z,27.48
2022-12-06T19:11:39.265Z,24.80
2022-12-06T19:14:06.511Z,22.23
2022-12-06T19:16:34.820Z,23.35
2022-12-06T19:19:03.277Z,24.83
2022-12-06T19:21:33.043Z,25.80
2022-12-06T19:24:00.399Z,23.73
2022-12-06T19:26:28.538Z,23.58
2022-12-06T19:28:55.381Z,21.90
2022-12-06T19:31:23.251Z,24.80
2022-12-06T19:33:51.035Z,24.50
2022-12-06T19:36:24.531Z,24.95
2022-12-06T19:38:59.582Z,22.73
2022-12-06T19:41:26.982Z,25.25
2022-12-06T19:44:12.195Z,37.45
2022-12-06T19:46:43.085Z,27.20
2022-12-06T19:49:10.417Z,29.60
2022-12-06T19:51:39.706Z,30.80
2022-12-06T19:54:07.837Z,28.83
2022-12-06T19:56:35.195Z,30.25
2022-12-06T19:59:11.272Z,29.35
2022-12-06T20:01:45.239Z,32.88
2022-12-06T20:04:17.518Z,29.92
2022-12-06T20:06:44.529Z,29.15
2022-12-06T20:09:12.284Z,31.00
2022-12-06T20:11:59.505Z,30.63
2022-12-06T20:14:26.773Z,32.08
2022-12-06T20:16:54.132Z,30.98
2022-12-06T20:19:21.813Z,30.75
2022-12-06T20:21:49.070Z,29.48
2022-12-06T20:24:19.229Z,31.50
2022-12-06T20:26:49.375Z,32.22
2022-12-06T20:29:20.360Z,32.53
2022-12-06T20:31:50.324Z,31.13
2022-12-06T20:34:17.650Z,32.85
2022-12-06T20:36:44.707Z,33.22
2022-12-06T20:39:21.081Z,33.90
2022-12-06T20:41:49.064Z,34.50
2022-12-06T20:44:17.286Z,32.55
2022-12-06T20:46:44.435Z,32.92
2022-12-06T20:49:11.213Z,33.45
2022-12-06T20:51:38.033Z,34.95
2022-12-06T20:54:09.128Z,31.42
2022-12-06T20:56:39.281Z,24.98
2022-12-06T20:59:07.302Z,31.73
2022-12-06T21:01:40.711Z,26.08
2022-12-06T21:04:08.966Z,23.88
2022-12-06T21:06:35.835Z,26.60
2022-12-06T21:09:02.701Z,19.95
2022-12-06T21:11:29.367Z,19.23
2022-12-06T21:13:57.545Z,19.58
2022-12-06T21:16:30.903Z,16.98
2022-12-06T21:19:04.996Z,17.83
2022-12-06T21:21:34.859Z,17.63
2022-12-06T21:24:03.198Z,18.10
2022-12-06T21:26:31.210Z,19.70
2022-12-06T21:28:58.619Z,19.10
2022-12-06T21:31:30.947Z,21.48
2022-12-06T21:33:57.934Z,20.27
2022-12-06T21:36:25.735Z,19.08
2022-12-06T21:38:55.927Z,19.85
2022-12-06T21:41:23.164Z,19.30
2022-12-06T21:43:50.475Z,21.98
2022-12-06T21:46:21.891Z,18.50
2022-12-06T21:48:56.272Z,21.53
2022-12-06T21:51:25.468Z,19.17
2022-12-06T21:53:52.572Z,18.58
2022-12-06T21:56:22.297Z,18.15
2022-12-06T21:58:49.879Z,16.95
2022-12-06T22:01:19.704Z,17.05
2022-12-06T22:03:54.835Z,17.77
2022-12-06T22:06:22.314Z,18.85
2022-12-06T22:08:54.954Z,16.77
2022-12-06T22:11:21.655Z,17.50
2022-12-06T22:13:48.466Z,17.73
2022-12-06T22:16:16.005Z,18.13
2022-12-06T22:18:45.913Z,18.70
2022-12-06T22:21:21.751Z,17.70
2022-12-06T22:23:48.920Z,19.25
2022-12-06T22:26:18.546Z,18.13
2022-12-06T22:28:45.769Z,20.42
2022-12-06T22:31:18.236Z,20.75
2022-12-06T22:33:46.268Z,21.85
2022-12-06T22:36:14.275Z,22.65
2022-12-06T22:38:40.876Z,25.27
2022-12-06T22:41:08.187Z,24.20
2022-12-06T22:43:35.218Z,24.05
2022-12-06T22:46:10.757Z,24.77
2022-12-06T22:48:39.162Z,24.83
2022-12-06T22:51:21.106Z,23.60
2022-12-06T22:54:11.748Z,24.48
2022-12-06T22:56:40.396Z,22.92
2022-12-06T22:59:07.539Z,24.70
2022-12-06T23:01:35.639Z,23.15
2022-12-06T23:04:05.765Z,24.02
2022-12-06T23:06:33.637Z,22.00
2022-12-06T23:09:00.490Z,25.83
2022-12-06T23:11:30.735Z,25.13
2022-12-06T23:13:58.645Z,27.00
2022-12-06T23:16:28.254Z,26.63
2022-12-06T23:18:55.119Z,23.90
2022-12-06T23:21:27.733Z,24.00
2022-12-06T23:24:16.591Z,25.05
2022-12-06T23:26:51.819Z,20.40
2022-12-06T23:29:21.450Z,20.98
2022-12-06T23:31:49.085Z,20.15
2022-12-06T23:34:20.515Z,19.90
2022-12-06T23:36:47.547Z,20.23
2022-12-06T23:39:15.001Z,18.00
2022-12-06T23:41:42.068Z,18.65
2022-12-06T23:44:10.955Z,19.50
2022-12-06T23:46:38.976Z,19.50
2022-12-06T23:49:07.431Z,20.08
2022-12-06T23:51:38.086Z,20.65
2022-12-06T23:54:06.942Z,21.77
2022-12-06T23:56:36.553Z,18.83
2022-12-06T23:59:05.128Z,20.73
